createdAt,value
2019-05-28T00:02:18.230Z,14.20
2019-05-28T00:04:48.453Z,14.10
2019-05-28T00:07:18.484Z,14.10
2019-05-28T00:09:48.530Z,14.10
2019-05-28T00:12:19.055Z,14.10
2019-05-28T00:14:49.110Z,14.00
2019-05-28T00:17:21.085Z,14.00
2019-05-28T00:19:51.210Z,14.00
2019-05-28T00:22:21.281Z,13.90
2019-05-28T00:24:51.346Z,13.80
2019-05-28T00:27:21.385Z,13.80
2019-05-28T00:29:51.455Z,13.70
2019-05-28T00:32:21.570Z,13.70
2019-05-28T00:34:51.714Z,13.70
2019-05-28T00:37:21.934Z,13.70
2019-05-28T00:39:52.019Z,13.70
2019-05-28T00:42:22.118Z,13.70
2019-05-28T00:44:52.190Z,13.70
2019-05-28T00:47:22.290Z,13.70
2019-05-28T00:49:52.361Z,13.70
2019-05-28T00:52:24.405Z,13.70
2019-05-28T00:54:54.462Z,13.70
2019-05-28T00:57:25.525Z,13.70
2019-05-28T00:59:56.318Z,13.70
2019-05-28T01:02:26.345Z,13.70
2019-05-28T01:04:56.687Z,13.70
2019-05-28T01:07:27.228Z,13.70
2019-05-28T01:09:57.342Z,13.60
2019-05-28T01:12:27.460Z,13.50
2019-05-28T01:14:57.793Z,13.50
2019-05-28T01:17:27.973Z,13.50
2019-05-28T01:19:58.065Z,13.40
2019-05-28T01:22:28.313Z,13.40
2019-05-28T01:24:58.522Z,13.40
2019-05-28T01:27:28.590Z,13.50
2019-05-28T01:29:58.659Z,13.50
2019-05-28T01:32:28.704Z,13.50
2019-05-28T01:34:58.830Z,13.60
2019-05-28T01:37:28.955Z,13.60
2019-05-28T01:39:59.089Z,13.60
2019-05-28T01:42:29.199Z,13.60
2019-05-28T01:44:59.340Z,13.60
2019-05-28T01:47:29.373Z,13.60
2019-05-28T01:49:59.584Z,13.50
2019-05-28T01:52:31.600Z,13.40
2019-05-28T01:55:04.918Z,13.30
2019-05-28T01:57:35.043Z,13.30
2019-05-28T02:00:06.621Z,13.20
2019-05-28T02:02:36.887Z,13.20
2019-05-28T02:05:07.772Z,13.20
2019-05-28T02:07:37.864Z,13.20
2019-05-28T02:10:09.449Z,13.10
2019-05-28T02:12:39.553Z,13.10
2019-05-28T02:15:10.214Z,13.00
2019-05-28T02:17:40.504Z,13.00
2019-05-28T02:20:11.333Z,13.00
2019-05-28T02:22:41.458Z,13.00
2019-05-28T02:25:13.341Z,13.00
2019-05-28T02:27:43.397Z,13.10
2019-05-28T02:30:14.327Z,13.20
2019-05-28T02:32:44.596Z,13.30
2019-05-28T02:35:15.483Z,13.30
2019-05-28T02:37:45.746Z,13.40
2019-05-28T02:40:16.703Z,13.40
2019-05-28T02:42:46.743Z,13.50
2019-05-28T02:45:18.695Z,13.50
2019-05-28T02:47:48.736Z,13.50
2019-05-28T02:50:24.342Z,13.50
2019-05-28T02:52:54.829Z,13.50
2019-05-28T02:55:25.326Z,13.50
2019-05-28T02:57:55.693Z,13.50
2019-05-28T03:00:25.959Z,13.50
2019-05-28T03:02:57.893Z,13.50
2019-05-28T03:05:29.655Z,13.50
2019-05-28T03:08:00.111Z,13.60
2019-05-28T03:10:59.891Z,13.60
2019-05-28T03:13:08.210Z,13.60
2019-05-28T03:15:41.136Z,13.60
2019-05-28T03:18:12.827Z,13.60
2019-05-28T03:20:44.780Z,13.60
2019-05-28T03:23:16.642Z,13.60
2019-05-28T03:25:46.725Z,13.50
2019-05-28T03:28:16.929Z,13.50
2019-05-28T03:30:47.068Z,13.50
2019-05-28T03:33:17.112Z,13.60
2019-05-28T03:35:49.141Z,13.60
2019-05-28T03:38:21.043Z,13.60
2019-05-28T03:40:51.105Z,13.60
2019-05-28T03:43:21.156Z,13.60
2019-05-28T03:45:51.213Z,13.50
2019-05-28T03:48:21.245Z,13.50
2019-05-28T03:50:51.468Z,13.50
2019-05-28T03:53:21.610Z,13.50
2019-05-28T03:55:51.737Z,13.50
2019-05-28T03:58:21.880Z,13.50
2019-05-28T04:00:51.997Z,13.40
2019-05-28T04:03:22.084Z,13.30
2019-05-28T04:05:52.255Z,13.20
2019-05-28T04:08:22.305Z,13.20
2019-05-28T04:10:52.502Z,13.30
2019-05-28T04:13:22.559Z,13.30
2019-05-28T04:15:52.684Z,13.40
2019-05-28T04:18:22.713Z,13.40
2019-05-28T04:20:52.756Z,13.50
2019-05-28T04:23:22.913Z,13.60
2019-05-28T04:25:53.087Z,13.60
2019-05-28T04:28:23.185Z,13.70
2019-05-28T04:30:53.309Z,13.70
2019-05-28T04:33:23.497Z,13.80
2019-05-28T04:35:53.565Z,13.90
2019-05-28T04:38:23.790Z,13.90
2019-05-28T04:40:54.034Z,14.00
2019-05-28T04:43:24.177Z,14.10
2019-05-28T04:45:54.368Z,14.10
2019-05-28T04:48:26.313Z,14.00
2019-05-28T04:50:56.410Z,14.00
2019-05-28T04:53:26.720Z,14.00
2019-05-28T04:55:57.110Z,13.90
2019-05-28T04:58:28.852Z,13.90
2019-05-28T05:00:58.935Z,13.90
2019-05-28T05:03:29.024Z,13.90
2019-05-28T05:05:59.094Z,13.90
2019-05-28T05:08:29.216Z,13.80
2019-05-28T05:11:01.114Z,13.80
2019-05-28T05:13:31.272Z,13.80
2019-05-28T05:16:03.551Z,13.80
2019-05-28T05:18:33.755Z,13.90
2019-05-28T05:21:04.264Z,14.00
2019-05-28T05:23:34.470Z,14.00
2019-05-28T05:26:04.752Z,14.10
2019-05-28T05:28:34.835Z,14.10
2019-05-28T05:31:05.063Z,14.10
2019-05-28T05:33:35.163Z,14.20
2019-05-28T05:36:05.243Z,14.20
2019-05-28T05:38:35.320Z,14.30
2019-05-28T05:41:05.437Z,14.30
2019-05-28T05:43:35.578Z,14.30
2019-05-28T05:46:09.533Z,14.30
2019-05-28T05:48:39.748Z,14.40
2019-05-28T05:51:09.926Z,14.50
2019-05-28T05:53:40.151Z,14.40
2019-05-28T05:56:13.676Z,14.10
2019-05-28T05:58:43.855Z,13.80
2019-05-28T06:01:15.947Z,13.60
2019-05-28T06:03:46.091Z,13.40
2019-05-28T06:06:17.920Z,13.20
2019-05-28T06:08:48.036Z,13.20
2019-05-28T06:11:18.111Z,13.20
2019-05-28T06:13:48.273Z,13.40
2019-05-28T06:16:18.462Z,13.50
2019-05-28T06:18:48.696Z,13.60
2019-05-28T06:21:19.208Z,13.80
2019-05-28T06:23:49.750Z,14.00
2019-05-28T06:26:19.922Z,14.20
2019-05-28T06:28:50.163Z,14.40
2019-05-28T06:31:20.374Z,14.50
2019-05-28T06:33:56.629Z,14.60
2019-05-28T06:36:22.337Z,14.60
2019-05-28T06:38:52.397Z,14.70
2019-05-28T06:41:22.563Z,14.90
2019-05-28T06:43:52.675Z,15.00
2019-05-28T06:46:22.786Z,15.10
2019-05-28T06:48:52.906Z,15.30
2019-05-28T06:51:23.037Z,15.40
2019-05-28T06:53:54.195Z,15.50
2019-05-28T06:56:24.412Z,15.50
2019-05-28T06:58:54.508Z,15.70
2019-05-28T07:01:28.181Z,15.70
2019-05-28T07:04:12.467Z,15.50
2019-05-28T07:06:28.125Z,15.40
2019-05-28T07:08:58.310Z,15.20
2019-05-28T07:11:28.448Z,14.90
2019-05-28T07:13:58.545Z,14.40
2019-05-28T07:16:28.738Z,14.00
2019-05-28T07:18:58.910Z,13.60
2019-05-28T07:21:29.482Z,13.30
2019-05-28T07:23:59.546Z,13.10
2019-05-28T07:26:29.647Z,12.90
2019-05-28T07:28:59.751Z,12.70
2019-05-28T07:31:29.970Z,12.50
2019-05-28T07:34:02.943Z,12.20
2019-05-28T07:36:33.784Z,11.90
2019-05-28T07:39:05.504Z,11.60
2019-05-28T07:41:35.886Z,11.30
2019-05-28T07:44:06.301Z,11.00
2019-05-28T07:46:36.355Z,10.80
2019-05-28T07:49:06.406Z,10.50
2019-05-28T07:51:38.578Z,10.40
2019-05-28T07:54:08.629Z,10.30
2019-05-28T07:56:40.949Z,10.20
2019-05-28T07:59:10.962Z,10.20
2019-05-28T08:01:43.069Z,10.20
2019-05-28T08:04:13.259Z,10.20
2019-05-28T08:06:54.296Z,10.20
2019-05-28T08:09:15.182Z,10.20
2019-05-28T08:11:45.331Z,10.10
2019-05-28T08:14:15.730Z,10.10
2019-05-28T08:16:52.851Z,10.10
2019-05-28T08:19:17.682Z,10.10
2019-05-28T08:21:47.910Z,10.10
2019-05-28T08:24:18.223Z,10.20
2019-05-28T08:26:48.382Z,10.20
2019-05-28T08:29:21.232Z,10.20
2019-05-28T08:31:51.310Z,10.30
2019-05-28T08:34:21.515Z,10.40
2019-05-28T08:37:05.018Z,10.40
2019-05-28T08:39:23.516Z,10.50
2019-05-28T08:41:53.662Z,10.50
2019-05-28T08:44:23.694Z,10.60
2019-05-28T08:46:53.761Z,10.70
2019-05-28T08:49:24.164Z,10.80
2019-05-28T08:51:54.498Z,10.90
2019-05-28T08:54:26.386Z,11.00
2019-05-28T08:56:56.450Z,11.20
2019-05-28T08:59:26.599Z,11.40
2019-05-28T09:01:56.648Z,11.50
2019-05-28T09:04:27.031Z,11.50
2019-05-28T09:06:57.083Z,11.50
2019-05-28T09:09:27.267Z,11.60
2019-05-28T09:11:57.515Z,11.60
2019-05-28T09:14:27.727Z,11.70
2019-05-28T09:17:01.421Z,11.80
2019-05-28T09:19:41.087Z,11.90
2019-05-28T09:22:24.646Z,12.00
2019-05-28T09:24:43.071Z,12.00
2019-05-28T09:27:13.401Z,12.10
2019-05-28T09:29:43.442Z,12.20
2019-05-28T09:32:13.550Z,12.30
2019-05-28T09:34:43.780Z,12.50
2019-05-28T09:37:13.973Z,12.60
2019-05-28T09:39:46.502Z,12.80
2019-05-28T09:42:16.791Z,13.10
2019-05-28T09:44:49.083Z,13.30
2019-05-28T09:47:19.266Z,13.70
2019-05-28T09:49:49.378Z,14.10
2019-05-28T09:52:19.471Z,14.30
2019-05-28T09:54:49.497Z,14.50
2019-05-28T09:57:19.645Z,14.70
2019-05-28T09:59:49.823Z,14.80
2019-05-28T10:02:20.246Z,15.00
2019-05-28T10:04:50.321Z,15.10
2019-05-28T10:07:20.514Z,15.30
2019-05-28T10:09:50.711Z,15.40
2019-05-28T10:12:20.955Z,15.50
2019-05-28T10:14:51.007Z,15.30
2019-05-28T10:17:21.283Z,15.00
2019-05-28T10:19:51.359Z,14.80
2019-05-28T10:22:21.464Z,14.70
2019-05-28T10:24:51.635Z,14.60
2019-05-28T10:27:21.897Z,14.70
2019-05-28T10:29:52.143Z,14.90
2019-05-28T10:32:22.287Z,15.30
2019-05-28T10:35:03.146Z,15.70
2019-05-28T10:37:24.221Z,16.10
2019-05-28T10:39:54.343Z,16.40
2019-05-28T10:42:24.380Z,16.70
2019-05-28T10:44:56.323Z,17.00
2019-05-28T10:47:26.465Z,17.50
2019-05-28T10:49:56.610Z,17.60
2019-05-28T10:52:26.984Z,17.80
2019-05-28T10:54:57.161Z,17.90
2019-05-28T10:57:27.334Z,18.20
2019-05-28T10:59:57.527Z,18.00
2019-05-28T11:02:27.605Z,17.90
2019-05-28T11:04:59.539Z,17.90
2019-05-28T11:07:29.694Z,17.70
2019-05-28T11:09:59.744Z,17.60
2019-05-28T11:12:29.966Z,17.60
2019-05-28T11:15:00.017Z,17.70
2019-05-28T11:17:30.109Z,18.00
2019-05-28T11:20:00.233Z,18.40
2019-05-28T11:22:30.329Z,18.60
2019-05-28T11:25:00.378Z,18.30
2019-05-28T11:27:30.603Z,18.20
2019-05-28T11:30:00.818Z,18.60
2019-05-28T11:32:31.116Z,18.80
2019-05-28T11:35:01.164Z,18.80
2019-05-28T11:37:31.645Z,18.80
2019-05-28T11:40:01.872Z,19.00
2019-05-28T11:42:32.006Z,19.30
2019-05-28T11:45:03.555Z,19.20
2019-05-28T11:47:33.968Z,18.90
2019-05-28T11:50:07.564Z,18.60
2019-05-28T11:52:37.635Z,18.30
2019-05-28T11:55:11.478Z,18.20
2019-05-28T11:57:41.802Z,18.20
2019-05-28T12:00:12.563Z,18.20
2019-05-28T12:02:42.936Z,18.40
2019-05-28T12:05:16.621Z,18.50
2019-05-28T12:07:46.966Z,18.30
2019-05-28T12:10:17.949Z,17.90
2019-05-28T12:12:51.816Z,17.60
2019-05-28T12:15:22.173Z,17.40
2019-05-28T12:17:52.241Z,17.30
2019-05-28T12:20:23.859Z,17.20
2019-05-28T12:23:09.738Z,17.10
2019-05-28T12:25:26.710Z,17.30
2019-05-28T12:27:56.812Z,17.70
2019-05-28T12:30:27.451Z,18.10
2019-05-28T12:33:01.318Z,18.30
2019-05-28T12:35:31.352Z,18.60
2019-05-28T12:38:01.551Z,18.40
2019-05-28T12:40:46.488Z,18.10
2019-05-28T12:43:05.523Z,17.80
2019-05-28T12:45:36.319Z,17.60
2019-05-28T12:48:12.145Z,17.50
2019-05-28T12:50:38.417Z,17.30
2019-05-28T12:53:11.496Z,17.00
2019-05-28T12:55:41.865Z,16.80
2019-05-28T12:58:11.942Z,16.70
2019-05-28T13:00:42.204Z,16.70
2019-05-28T13:03:12.422Z,16.70
2019-05-28T13:05:42.518Z,16.30
2019-05-28T13:08:12.888Z,15.60
2019-05-28T13:10:42.931Z,14.70
2019-05-28T13:13:14.691Z,14.10
2019-05-28T13:15:44.971Z,13.80
2019-05-28T13:18:16.972Z,13.80
2019-05-28T13:20:48.337Z,13.70
2019-05-28T13:23:18.708Z,13.80
2019-05-28T13:25:48.893Z,14.40
2019-05-28T13:28:19.185Z,15.00
2019-05-28T13:30:52.242Z,15.50
2019-05-28T13:33:22.419Z,15.90
2019-05-28T13:35:52.830Z,16.20
2019-05-28T13:38:27.666Z,16.50
2019-05-28T13:40:58.417Z,16.80
2019-05-28T13:43:28.479Z,17.00
2019-05-28T13:45:59.100Z,17.10
2019-05-28T13:48:29.168Z,17.30
2019-05-28T13:51:11.111Z,17.40
2019-05-28T13:53:41.237Z,17.40
2019-05-28T13:56:11.426Z,17.20
2019-05-28T13:58:41.578Z,16.90
2019-05-28T14:01:11.674Z,16.90
2019-05-28T14:03:41.763Z,17.10
2019-05-28T14:06:11.822Z,17.60
2019-05-28T14:08:47.210Z,18.10
2019-05-28T14:11:13.636Z,18.80
2019-05-28T14:13:43.833Z,19.30
2019-05-28T14:16:13.878Z,19.80
2019-05-28T14:18:44.536Z,20.00
2019-05-28T14:21:15.470Z,19.80
2019-05-28T14:23:45.535Z,19.70
2019-05-28T14:26:15.656Z,19.50
2019-05-28T14:28:46.131Z,19.40
2019-05-28T14:31:16.274Z,19.40
2019-05-28T14:33:48.180Z,19.30
2019-05-28T14:36:18.370Z,19.40
2019-05-28T14:39:01.380Z,19.50
2019-05-28T14:41:20.277Z,19.50
2019-05-28T14:43:50.452Z,19.60
2019-05-28T14:46:20.762Z,19.80
2019-05-28T14:48:51.379Z,20.10
2019-05-28T14:51:21.505Z,20.20
2019-05-28T14:53:53.207Z,20.40
2019-05-28T14:56:27.464Z,20.10
2019-05-28T14:58:57.655Z,19.50
2019-05-28T15:01:27.759Z,18.90
2019-05-28T15:03:57.892Z,18.50
2019-05-28T15:06:28.090Z,18.30
2019-05-28T15:08:58.149Z,18.10
2019-05-28T15:11:30.144Z,18.10
2019-05-28T15:14:00.390Z,18.30
2019-05-28T15:16:30.490Z,18.60
2019-05-28T15:19:00.584Z,19.00
2019-05-28T15:21:30.682Z,19.60
2019-05-28T15:24:00.730Z,20.00
2019-05-28T15:26:33.950Z,20.00
2019-05-28T15:29:08.277Z,19.90
2019-05-28T15:31:40.825Z,19.80
2019-05-28T15:34:11.008Z,19.60
2019-05-28T15:36:41.132Z,19.50
2019-05-28T15:39:11.359Z,19.50
2019-05-28T15:41:45.811Z,19.60
2019-05-28T15:44:16.099Z,19.40
2019-05-28T15:46:46.290Z,19.00
2019-05-28T15:49:17.888Z,18.70
2019-05-28T15:51:48.132Z,18.50
2019-05-28T15:54:18.431Z,18.30
2019-05-28T15:56:48.695Z,18.20
2019-05-28T15:59:18.931Z,18.10
2019-05-28T16:01:52.821Z,17.90
2019-05-28T16:04:25.585Z,17.80
2019-05-28T16:06:55.999Z,17.60
2019-05-28T16:09:26.353Z,17.40
2019-05-28T16:11:56.571Z,17.20
2019-05-28T16:14:26.817Z,17.10
2019-05-28T16:16:57.130Z,16.90
2019-05-28T16:19:27.650Z,16.80
2019-05-28T16:21:57.963Z,16.70
2019-05-28T16:24:31.189Z,16.70
2019-05-28T16:27:01.310Z,16.70
2019-05-28T16:29:35.799Z,16.70
2019-05-28T16:32:06.027Z,16.80
2019-05-28T16:34:36.161Z,17.00
2019-05-28T16:37:06.404Z,17.30
2019-05-28T16:39:38.235Z,17.40
2019-05-28T16:42:08.266Z,17.40
2019-05-28T16:44:40.041Z,17.40
2019-05-28T16:47:16.852Z,17.60
2019-05-28T16:49:42.357Z,17.80
2019-05-28T16:52:12.613Z,17.90
2019-05-28T16:54:42.759Z,17.70
2019-05-28T16:57:13.137Z,17.40
2019-05-28T16:59:43.379Z,17.00
2019-05-28T17:02:13.601Z,16.60
2019-05-28T17:04:43.798Z,16.10
2019-05-28T17:07:15.758Z,15.70
2019-05-28T17:09:45.894Z,15.20
2019-05-28T17:12:16.154Z,14.60
2019-05-28T17:14:46.391Z,14.10
2019-05-28T17:17:16.604Z,13.80
2019-05-28T17:19:46.758Z,13.50
2019-05-28T17:22:16.932Z,13.30
2019-05-28T17:24:47.274Z,13.20
2019-05-28T17:27:17.476Z,13.20
2019-05-28T17:29:50.559Z,13.20
2019-05-28T17:32:19.459Z,13.20
2019-05-28T17:34:49.551Z,13.30
2019-05-28T17:37:19.607Z,13.40
2019-05-28T17:39:49.769Z,13.40
2019-05-28T17:42:19.871Z,13.50
2019-05-28T17:44:49.930Z,13.60
2019-05-28T17:47:19.974Z,13.70
2019-05-28T17:49:50.232Z,13.90
2019-05-28T17:52:20.449Z,14.00
2019-05-28T17:54:50.610Z,14.20
2019-05-28T17:57:23.057Z,14.40
2019-05-28T17:59:53.143Z,14.50
2019-05-28T18:02:23.201Z,14.60
2019-05-28T18:04:53.287Z,14.60
2019-05-28T18:07:23.385Z,14.60
2019-05-28T18:09:53.667Z,14.50
2019-05-28T18:12:23.799Z,14.50
2019-05-28T18:14:53.972Z,14.40
2019-05-28T18:17:24.119Z,14.40
2019-05-28T18:19:54.280Z,14.30
2019-05-28T18:22:24.491Z,14.20
2019-05-28T18:24:54.836Z,14.10
2019-05-28T18:27:24.975Z,14.00
2019-05-28T18:29:55.320Z,13.90
2019-05-28T18:32:25.380Z,13.80
2019-05-28T18:34:55.609Z,13.80
2019-05-28T18:37:25.871Z,13.70
2019-05-28T18:39:56.088Z,13.70
2019-05-28T18:42:26.212Z,13.60
2019-05-28T18:44:56.447Z,13.50
2019-05-28T18:50:08.282Z,13.30
2019-05-28T18:52:38.333Z,13.30
2019-05-28T18:55:08.951Z,13.20
2019-05-28T18:57:39.032Z,13.20
2019-05-28T19:00:09.527Z,13.20
2019-05-28T19:02:39.934Z,13.20
2019-05-28T19:05:10.802Z,13.20
2019-05-28T19:07:40.852Z,13.20
2019-05-28T19:10:13.992Z,13.20
2019-05-28T19:12:45.960Z,13.30
2019-05-28T19:15:17.299Z,13.40
2019-05-28T19:17:47.599Z,13.40
2019-05-28T19:20:18.279Z,13.50
2019-05-28T19:22:48.544Z,13.50
2019-05-28T19:25:22.237Z,13.50
2019-05-28T19:27:52.464Z,13.50
2019-05-28T19:30:33.403Z,13.60
2019-05-28T19:33:05.861Z,13.60
2019-05-28T19:35:36.014Z,13.70
2019-05-28T19:38:06.156Z,13.80
2019-05-28T19:40:38.489Z,13.80
2019-05-28T19:43:08.943Z,13.80
2019-05-28T19:45:39.414Z,13.70
2019-05-28T19:48:09.634Z,13.70
2019-05-28T19:50:39.778Z,13.60
2019-05-28T19:53:09.883Z,13.60
2019-05-28T19:55:40.000Z,13.50
2019-05-28T19:58:10.180Z,13.40
2019-05-28T20:00:40.481Z,13.20
2019-05-28T20:03:10.548Z,13.20
2019-05-28T20:05:40.870Z,13.10
2019-05-28T20:08:11.179Z,13.10
2019-05-28T20:10:41.900Z,13.10
2019-05-28T20:13:14.194Z,13.00
2019-05-28T20:15:46.438Z,12.90
2019-05-28T20:18:26.338Z,12.80
2019-05-28T20:20:49.569Z,12.70
2019-05-28T20:23:19.997Z,12.60
2019-05-28T20:25:51.845Z,12.60
2019-05-28T20:28:21.912Z,12.60
2019-05-28T20:30:52.016Z,12.50
2019-05-28T20:33:22.242Z,12.50
2019-05-28T20:35:52.315Z,12.50
2019-05-28T20:38:22.352Z,12.60
2019-05-28T20:40:52.500Z,12.60
2019-05-28T20:43:22.620Z,12.60
2019-05-28T20:45:52.714Z,12.60
2019-05-28T20:48:22.880Z,12.60
2019-05-28T20:51:07.007Z,12.50
2019-05-28T20:53:35.687Z,12.50
2019-05-28T20:55:56.706Z,12.60
2019-05-28T20:58:39.282Z,12.60
2019-05-28T21:00:58.649Z,12.50
2019-05-28T21:03:28.763Z,12.50
2019-05-28T21:06:01.478Z,12.40
2019-05-28T21:08:31.562Z,12.40
2019-05-28T21:11:01.740Z,12.30
2019-05-28T21:13:32.065Z,12.20
2019-05-28T21:16:05.003Z,12.20
2019-05-28T21:18:35.135Z,12.10
2019-05-28T21:21:05.266Z,12.10
2019-05-28T21:23:37.718Z,12.00
2019-05-28T21:26:07.900Z,11.90
2019-05-28T21:28:37.959Z,11.90
2019-05-28T21:31:08.045Z,11.80
2019-05-28T21:33:38.331Z,11.80
2019-05-28T21:36:08.409Z,11.70
2019-05-28T21:38:38.559Z,11.60
2019-05-28T21:41:08.932Z,11.60
2019-05-28T21:43:39.053Z,11.60
2019-05-28T21:46:09.205Z,11.60
2019-05-28T21:48:39.416Z,11.60
2019-05-28T21:51:09.633Z,11.70
2019-05-28T21:53:39.840Z,11.70
2019-05-28T21:56:10.117Z,11.70
2019-05-28T21:58:40.290Z,11.60
2019-05-28T22:01:15.365Z,11.60
2019-05-28T22:03:45.517Z,11.50
2019-05-28T22:06:15.729Z,11.30
2019-05-28T22:08:45.876Z,11.20
2019-05-28T22:11:16.011Z,11.00
2019-05-28T22:13:46.166Z,10.90
2019-05-28T22:16:16.243Z,10.80
2019-05-28T22:18:46.296Z,10.80
2019-05-28T22:21:16.480Z,10.70
2019-05-28T22:23:46.691Z,10.60
2019-05-28T22:26:16.794Z,10.60
2019-05-28T22:28:46.845Z,10.50
2019-05-28T22:31:17.002Z,10.50
2019-05-28T22:33:47.071Z,10.50
2019-05-28T22:36:17.403Z,10.50
2019-05-28T22:39:06.479Z,10.40
2019-05-28T22:41:38.829Z,10.30
2019-05-28T22:44:09.302Z,10.30
2019-05-28T22:46:39.430Z,10.30
2019-05-28T22:49:11.459Z,10.30
2019-05-28T22:51:41.731Z,10.30
2019-05-28T22:54:11.843Z,10.20
2019-05-28T22:56:42.192Z,10.10
2019-05-28T22:59:12.247Z,10.00
2019-05-28T23:01:42.408Z,10.00
2019-05-28T23:04:12.708Z,10.00
2019-05-28T23:06:42.918Z,10.00
2019-05-28T23:09:14.735Z,9.90
2019-05-28T23:11:44.807Z,9.90
2019-05-28T23:14:14.835Z,9.90
2019-05-28T23:16:44.918Z,9.90
2019-05-28T23:19:15.089Z,9.80
2019-05-28T23:21:45.233Z,9.80
2019-05-28T23:24:15.328Z,9.80
2019-05-28T23:26:45.475Z,9.70
2019-05-28T23:29:17.813Z,9.60
2019-05-28T23:31:47.968Z,9.50
2019-05-28T23:34:20.996Z,9.40
2019-05-28T23:36:51.053Z,9.40
2019-05-28T23:39:22.910Z,9.30
2019-05-28T23:41:52.974Z,9.20
2019-05-28T23:44:24.602Z,9.20
2019-05-28T23:46:57.483Z,9.20
2019-05-28T23:49:27.650Z,9.10
2019-05-28T23:51:57.857Z,9.10
2019-05-28T23:54:27.888Z,9.00
2019-05-28T23:56:58.028Z,9.00
2019-05-28T23:59:28.606Z,9.00
